Meath Environmental Platform

Observations for Trim Patrick St

Time AQI Temp °C Hum % Pres Pa CO μg/m³ H₂S μg/m³ NO μg/m³ NO₂ μg/m³ O₃ μg/m³ SO₂ μg/m³ PM1 μg/m³ PM2.5 μg/m³ PM10 μg/m³
Sunday 2 August 2026
15:44 3 26.1 37 69,031 0 5.82 1.08 20.9 92.73 8.65 2 8.01 8.81
15:42 3 26.2 37 69,037 0 5.57 1.07 22.52 103.24 9.39 2.86 8.84 9.72
15:41 3 26.3 37 69,027 0 3.7 1.12 14.45 75.78 9.78 3.71 10.38 11.41
15:39 3 26.4 37 69,035 0 0 1.14 14.3 73.73 8.31 3.71 9.63 10.6
15:38 3 26.4 37 69,051 0 7.19 1.17 16.14 95.34 10.39 3.71 9.61 10.57
15:36 3 26.5 37 69,039 0 7.29 1.15 22.59 84.58 9.98 3.71 9.62 10.58
15:35 3 26.5 36 69,023 0 5.15 1.27 22.37 96.57 9.1 2.86 8.87 9.76
15:34 2 26.6 36 69,033 0 0.67 1.14 19.75 90.32 9.57 2.86 8.89 9.78
15:33 3 26.6 36 69,047 0 0 1.16 14.33 74.75 8.81 3.71 9.65 10.62
15:32 2 26.6 36 69,033 0 1.87 1.1 16.24 98.74 9.44 2.86 8.88 9.76
15:31 2 26.6 36 69,043 0 1.9 1.07 13.25 79.74 9.55 2 8.1 8.91
15:30 2 26.6 36 69,057 0 8.45 1.07 27.46 156.69 10.89 2.86 8.89 9.78
15:29 2 26.7 36 69,045 0 3.65 1.24 13.13 83.7 10.48 3.71 9.66 10.63
15:28 2 26.7 35 69,031 0 0 1.24 14.1 94.27 9.64 2 8.14 8.96
15:27 2 26.8 36 69,043 0 0 1.29 12.24 108.91 10.4 2.86 8.08 8.89
15:26 2 26.8 35 69,057 0 0 1.38 11.78 86.58 9.75 2.86 8.94 9.83
15:25 2 26.9 36 69,051 0 0 1.28 13.74 77.05 9.37 2.86 8.88 9.76
15:24 2 26.9 36 69,069 0 0 1.23 11.32 76.35 10.42 3.71 9.69 10.66
15:23 2 27 35 69,090 0 0 1.34 17.25 90.57 8.82 2.86 9.72 10.7
15:22 2 27.1 36 69,086 0 0 1.32 13.81 81.86 10.15 3.71 9.66 10.63